createdAt,value
2017-11-16T06:57:56.603Z,20.77
2017-11-16T07:00:28.489Z,29.03
2017-11-16T07:03:00.378Z,18.50
2017-11-16T07:05:32.245Z,21.00
2017-11-16T07:08:04.128Z,22.37
2017-11-16T07:10:36.001Z,21.87
2017-11-16T07:13:07.908Z,21.70
2017-11-16T07:15:40.554Z,21.03
2017-11-16T07:18:12.450Z,23.17
2017-11-16T07:20:45.081Z,24.13
2017-11-16T07:23:17.297Z,24.47
2017-11-16T07:25:49.220Z,24.23
2017-11-16T07:28:21.127Z,21.47
2017-11-16T07:30:53.007Z,24.47
2017-11-16T07:33:24.919Z,21.10
2017-11-16T07:35:57.553Z,25.90
2017-11-16T07:38:29.456Z,24.70
2017-11-16T07:41:02.124Z,26.77
2017-11-16T07:43:34.029Z,23.77
2017-11-16T07:46:05.901Z,24.53
2017-11-16T07:48:37.832Z,26.33
2017-11-16T07:51:10.468Z,20.60
2017-11-16T07:53:42.394Z,23.33
2017-11-16T07:56:14.257Z,21.87
2017-11-16T07:58:46.173Z,25.63
2017-11-16T08:01:18.046Z,24.40
2017-11-16T08:03:50.738Z,23.33
2017-11-16T08:06:23.369Z,22.57
2017-11-16T08:08:55.277Z,26.60
2017-11-16T08:11:27.924Z,25.10
2017-11-16T08:13:59.846Z,24.20
2017-11-16T08:16:31.717Z,20.20
2017-11-16T08:19:03.633Z,25.77
2017-11-16T08:21:36.280Z,24.37
2017-11-16T08:24:08.174Z,25.27
2017-11-16T08:26:40.053Z,24.87
2017-11-16T08:29:11.937Z,25.87
2017-11-16T08:31:43.810Z,25.23
2017-11-16T08:34:15.724Z,24.50
2017-11-16T08:36:47.613Z,24.33
2017-11-16T08:39:19.543Z,24.57
2017-11-16T08:41:51.417Z,22.33
2017-11-16T08:44:23.357Z,24.57
2017-11-16T08:46:55.236Z,23.93
2017-11-16T08:49:27.149Z,21.50
2017-11-16T08:51:59.019Z,26.20
2017-11-16T08:54:31.689Z,23.73
2017-11-16T08:57:03.566Z,22.13
2017-11-16T08:59:36.273Z,22.03
2017-11-16T09:02:08.885Z,23.60
2017-11-16T09:04:40.773Z,24.73
2017-11-16T09:07:13.422Z,28.40
2017-11-16T09:09:45.317Z,26.73
2017-11-16T09:12:17.958Z,23.93
2017-11-16T09:14:49.876Z,25.57
2017-11-16T09:17:21.832Z,24.53
2017-11-16T09:19:53.758Z,26.63
2017-11-16T09:22:25.630Z,25.57
2017-11-16T09:24:58.309Z,25.80
2017-11-16T09:27:31.222Z,25.60
2017-11-16T09:30:03.129Z,26.63
2017-11-16T09:32:35.054Z,25.40
2017-11-16T09:35:06.966Z,28.20
2017-11-16T09:37:38.842Z,23.10
2017-11-16T09:40:11.504Z,24.80
2017-11-16T09:42:43.385Z,23.27
2017-11-16T09:45:15.326Z,23.30
2017-11-16T09:47:47.214Z,27.53
2017-11-16T09:50:19.861Z,27.37
2017-11-16T09:52:51.737Z,29.13
2017-11-16T09:55:24.389Z,23.57
2017-11-16T09:57:56.273Z,24.30
2017-11-16T10:00:28.960Z,22.70
2017-11-16T10:03:01.601Z,24.60
2017-11-16T10:05:33.514Z,24.47
2017-11-16T10:08:05.394Z,25.27
2017-11-16T10:10:37.298Z,26.13
2017-11-16T10:13:09.180Z,24.00
2017-11-16T10:15:41.837Z,27.20
2017-11-16T10:18:13.730Z,25.47
2017-11-16T10:20:45.641Z,24.67
2017-11-16T10:23:17.521Z,20.97
2017-11-16T10:25:49.460Z,25.03
2017-11-16T10:28:21.346Z,22.40
2017-11-16T10:30:53.261Z,21.77
2017-11-16T10:33:25.154Z,24.33
2017-11-16T10:35:57.061Z,25.23
2017-11-16T10:38:28.947Z,25.13
2017-11-16T10:41:00.979Z,22.33
2017-11-16T10:43:32.874Z,23.83
2017-11-16T10:46:04.778Z,22.70
2017-11-16T10:48:37.412Z,24.83
2017-11-16T10:51:09.325Z,26.23
2017-11-16T10:53:41.966Z,24.47
2017-11-16T10:56:13.880Z,24.47
2017-11-16T10:58:45.774Z,23.03
2017-11-16T11:01:17.686Z,25.23
2017-11-16T11:03:50.329Z,23.60
2017-11-16T11:06:22.234Z,23.43
2017-11-16T11:08:54.405Z,20.90
2017-11-16T11:11:26.388Z,20.67
2017-11-16T11:13:58.313Z,24.63
2017-11-16T11:16:30.198Z,23.60
2017-11-16T11:19:02.073Z,20.73
2017-11-16T11:21:33.973Z,21.27
2017-11-16T11:24:05.846Z,21.83
2017-11-16T11:26:38.518Z,24.23
2017-11-16T11:29:10.397Z,18.20
2017-11-16T11:31:43.101Z,23.07
2017-11-16T11:34:14.983Z,21.43
2017-11-16T11:36:46.897Z,24.77
2017-11-16T11:39:19.553Z,24.20
2017-11-16T11:41:51.457Z,20.43
2017-11-16T11:44:23.342Z,20.07
2017-11-16T11:46:55.257Z,19.17
2017-11-16T11:49:27.914Z,20.60
2017-11-16T11:51:59.822Z,20.47
2017-11-16T11:54:31.696Z,18.37
2017-11-16T11:57:03.933Z,21.17
2017-11-16T11:59:35.812Z,20.20
2017-11-16T12:02:07.733Z,18.53
2017-11-16T12:04:40.376Z,20.03
2017-11-16T12:07:12.323Z,22.67
2017-11-16T12:09:44.188Z,18.60
2017-11-16T12:12:16.065Z,19.87
2017-11-16T12:14:47.935Z,20.37
2017-11-16T12:17:19.865Z,20.47
2017-11-16T12:19:51.736Z,20.67
2017-11-16T12:22:24.633Z,18.63
2017-11-16T12:24:56.524Z,22.20
2017-11-16T12:27:29.214Z,22.40
2017-11-16T12:30:01.856Z,22.00
2017-11-16T12:32:33.761Z,21.93
2017-11-16T12:35:05.656Z,19.40
2017-11-16T12:37:37.564Z,20.37
2017-11-16T12:40:09.453Z,19.10
2017-11-16T12:42:41.368Z,18.87
2017-11-16T12:45:13.241Z,20.50
2017-11-16T12:47:45.930Z,19.90
2017-11-16T12:50:18.580Z,23.30
2017-11-16T12:52:50.481Z,21.00
2017-11-16T12:55:22.357Z,19.57
2017-11-16T12:57:54.311Z,22.33
2017-11-16T13:00:26.212Z,18.30
2017-11-16T13:02:58.109Z,22.10
2017-11-16T13:05:30.742Z,16.53
2017-11-16T13:08:02.645Z,21.50
2017-11-16T13:10:35.285Z,22.93
2017-11-16T13:13:07.205Z,20.33
2017-11-16T13:15:39.089Z,17.97
2017-11-16T13:18:11.004Z,22.63
2017-11-16T13:20:43.641Z,22.73
2017-11-16T13:23:15.565Z,17.83
2017-11-16T13:25:47.443Z,22.67
2017-11-16T13:28:19.350Z,18.33
2017-11-16T13:30:51.222Z,17.57
2017-11-16T13:33:23.878Z,18.97
2017-11-16T13:35:55.761Z,20.93
2017-11-16T13:38:28.433Z,17.77
2017-11-16T13:41:01.074Z,20.43
2017-11-16T13:43:32.974Z,20.03
2017-11-16T13:46:05.617Z,20.27
2017-11-16T13:48:37.511Z,20.67
2017-11-16T13:51:10.153Z,21.70
2017-11-16T13:53:42.062Z,20.17
2017-11-16T13:56:14.697Z,20.00
2017-11-16T13:58:46.581Z,17.30
2017-11-16T14:01:18.460Z,21.03
2017-11-16T14:03:51.114Z,18.57
2017-11-16T14:06:23.002Z,19.77
2017-11-16T14:08:55.888Z,16.77
2017-11-16T14:11:27.762Z,16.37
2017-11-16T14:13:59.667Z,17.43
2017-11-16T14:16:31.537Z,16.27
2017-11-16T14:19:03.446Z,19.17
2017-11-16T14:21:35.320Z,14.90
2017-11-16T14:24:07.216Z,15.47
2017-11-16T14:26:39.098Z,16.03
2017-11-16T14:29:11.777Z,19.40
2017-11-16T14:31:44.417Z,15.97
2017-11-16T14:34:16.324Z,17.20
2017-11-16T14:36:48.205Z,17.27
2017-11-16T14:39:20.098Z,18.00
2017-11-16T14:41:51.978Z,14.57
2017-11-16T14:44:23.890Z,14.43
2017-11-16T14:46:55.768Z,20.07
2017-11-16T14:49:27.665Z,16.60
2017-11-16T14:51:59.537Z,19.00
2017-11-16T14:54:32.233Z,17.60
2017-11-16T14:57:04.100Z,14.77
2017-11-16T14:59:36.305Z,19.23
2017-11-16T15:02:08.177Z,17.80
2017-11-16T15:04:40.065Z,18.83
2017-11-16T15:07:12.710Z,17.90
2017-11-16T15:09:44.621Z,19.97
2017-11-16T15:12:16.497Z,18.10
2017-11-16T15:14:48.424Z,18.53
2017-11-16T15:17:21.065Z,16.97
2017-11-16T15:19:52.958Z,19.83
2017-11-16T15:22:25.593Z,15.40
2017-11-16T15:24:57.497Z,16.10
2017-11-16T15:27:30.137Z,19.70
2017-11-16T15:30:02.058Z,18.40
2017-11-16T15:32:33.957Z,20.00
2017-11-16T15:35:05.865Z,19.57
2017-11-16T15:37:38.501Z,17.80
2017-11-16T15:40:10.517Z,18.57
2017-11-16T15:42:42.396Z,18.60
2017-11-16T15:45:14.302Z,19.43
2017-11-16T15:47:46.170Z,18.60
2017-11-16T15:50:18.843Z,16.07
2017-11-16T15:52:50.705Z,20.10
2017-11-16T15:55:22.614Z,18.10
2017-11-16T15:57:54.481Z,14.93
2017-11-16T16:00:26.381Z,22.20
2017-11-16T16:02:58.253Z,18.07
2017-11-16T16:05:30.942Z,18.20
2017-11-16T16:08:03.573Z,18.90
2017-11-16T16:10:35.482Z,19.67
2017-11-16T16:13:08.120Z,20.07
2017-11-16T16:15:40.038Z,20.20
2017-11-16T16:18:11.928Z,16.93
2017-11-16T16:20:43.816Z,20.13
2017-11-16T16:23:15.692Z,17.20
2017-11-16T16:25:48.593Z,16.23
2017-11-16T16:28:20.462Z,17.77
2017-11-16T16:30:52.352Z,17.90
2017-11-16T16:33:24.221Z,21.33
2017-11-16T16:35:56.137Z,17.77
2017-11-16T16:38:28.013Z,20.37
2017-11-16T16:40:59.926Z,19.47
2017-11-16T16:43:31.801Z,18.87
2017-11-16T16:46:04.465Z,15.73
2017-11-16T16:48:36.346Z,17.30
2017-11-16T16:51:09.007Z,19.93
2017-11-16T16:53:41.648Z,18.37
2017-11-16T16:56:13.558Z,17.20
2017-11-16T16:58:46.185Z,18.27
2017-11-16T17:01:18.096Z,17.93
2017-11-16T17:03:50.736Z,17.03
2017-11-16T17:06:22.642Z,13.70
2017-11-16T17:08:54.521Z,16.37
2017-11-16T17:11:26.436Z,15.87
2017-11-16T17:13:58.305Z,17.10
2017-11-16T17:16:30.985Z,15.90
2017-11-16T17:19:03.616Z,17.70
2017-11-16T17:21:36.285Z,15.83
2017-11-16T17:24:08.156Z,20.10
2017-11-16T17:26:40.065Z,18.63
2017-11-16T17:29:12.701Z,16.60
2017-11-16T17:31:44.605Z,18.97
2017-11-16T17:34:17.236Z,22.77
2017-11-16T17:36:49.153Z,17.50
2017-11-16T17:39:21.037Z,19.77
2017-11-16T17:41:52.945Z,18.73
2017-11-16T17:44:24.816Z,15.90
2017-11-16T17:46:57.485Z,18.37
2017-11-16T17:49:29.353Z,19.43
2017-11-16T17:52:01.268Z,15.50
2017-11-16T17:54:33.154Z,17.07
2017-11-16T17:57:05.045Z,15.90
2017-11-16T17:59:37.685Z,17.33
2017-11-16T18:02:09.594Z,16.33
2017-11-16T18:04:41.465Z,16.93
2017-11-16T18:07:13.378Z,14.53
2017-11-16T18:09:45.255Z,15.73
2017-11-16T18:12:17.922Z,17.43
2017-11-16T18:14:49.801Z,16.37
2017-11-16T18:17:22.474Z,16.57
2017-11-16T18:19:55.118Z,20.17
2017-11-16T18:22:27.037Z,17.57
2017-11-16T18:24:58.926Z,16.97
2017-11-16T18:27:30.833Z,15.27
2017-11-16T18:30:03.473Z,17.27
2017-11-16T18:32:35.391Z,15.23
2017-11-16T18:35:08.025Z,20.07
2017-11-16T18:37:39.944Z,16.20
2017-11-16T18:40:11.825Z,15.23
2017-11-16T18:42:43.732Z,15.97
2017-11-16T18:45:16.377Z,19.27
2017-11-16T18:47:49.054Z,20.10
2017-11-16T18:50:20.921Z,15.20
2017-11-16T18:52:52.829Z,15.30
2017-11-16T18:55:24.696Z,14.63
2017-11-16T18:57:56.621Z,19.53
2017-11-16T19:00:28.497Z,15.33
2017-11-16T19:03:01.169Z,18.63
2017-11-16T19:05:33.041Z,20.00
2017-11-16T19:08:05.715Z,17.60
2017-11-16T19:10:38.357Z,15.93
2017-11-16T19:13:10.257Z,20.20
2017-11-16T19:15:42.895Z,17.33
2017-11-16T19:18:14.810Z,17.50
2017-11-16T19:20:46.694Z,19.83
2017-11-16T19:23:18.598Z,17.93
2017-11-16T19:25:50.469Z,19.67
2017-11-16T19:28:23.133Z,16.97
2017-11-16T19:30:55.000Z,20.17
2017-11-16T19:33:26.886Z,17.10
2017-11-16T19:35:58.760Z,22.20
2017-11-16T19:38:30.645Z,16.40
2017-11-16T19:41:02.525Z,16.23
2017-11-16T19:43:34.430Z,18.77
2017-11-16T19:46:06.297Z,19.93
2017-11-16T19:48:38.201Z,18.10
2017-11-16T19:51:10.080Z,16.57
2017-11-16T19:53:41.982Z,18.00
2017-11-16T19:56:13.852Z,14.90
2017-11-16T19:58:45.744Z,21.63
2017-11-16T20:01:17.616Z,18.10
2017-11-16T20:03:49.517Z,17.93
2017-11-16T20:06:21.396Z,16.83
2017-11-16T20:08:53.633Z,17.20
2017-11-16T20:11:25.519Z,20.83
2017-11-16T20:13:57.426Z,16.63
2017-11-16T20:16:29.297Z,22.03
2017-11-16T20:19:01.960Z,20.27
2017-11-16T20:21:33.832Z,18.33
2017-11-16T20:24:06.517Z,20.97
2017-11-16T20:26:39.157Z,20.40
2017-11-16T20:29:11.067Z,23.43
2017-11-16T20:31:43.714Z,22.90
2017-11-16T20:34:15.625Z,19.97
2017-11-16T20:36:47.490Z,22.67
2017-11-16T20:39:19.412Z,26.57
